createdAt,value
2017-11-11T00:00:59.986Z,98333.34
2017-11-11T00:03:30.999Z,98335.62
2017-11-11T00:06:01.110Z,98340.88
2017-11-11T00:08:33.015Z,98336.02
2017-11-11T00:11:03.595Z,98333.87
2017-11-11T00:13:36.614Z,98335.41
2017-11-11T00:16:06.787Z,98330.78
2017-11-11T00:18:38.046Z,98330.15
2017-11-11T00:21:11.091Z,98336.08
2017-11-11T00:23:41.205Z,98335.02
2017-11-11T00:26:11.320Z,98341.09
2017-11-11T00:28:41.325Z,98338.11
2017-11-11T00:31:11.229Z,98340.86
2017-11-11T00:33:41.204Z,98332.37
2017-11-11T00:36:12.093Z,98332.19
2017-11-11T00:38:42.100Z,98327.39
2017-11-11T00:41:12.512Z,98329.80
2017-11-11T00:46:17.025Z,98329.62
2017-11-11T00:48:47.036Z,98328.45
2017-11-11T00:51:17.064Z,98328.47
2017-11-11T00:53:46.963Z,98331.19
2017-11-11T00:56:17.815Z,98330.48
2017-11-11T00:58:47.952Z,98333.07
2017-11-11T01:01:18.164Z,98332.48
2017-11-11T01:03:48.832Z,98333.47
2017-11-11T01:06:18.636Z,98329.41
2017-11-11T01:08:48.655Z,98313.31
2017-11-11T01:11:19.092Z,98319.21
2017-11-11T01:13:48.980Z,98315.95
2017-11-11T01:16:20.193Z,98321.87
2017-11-11T01:18:50.212Z,98306.03
2017-11-11T01:21:20.750Z,98305.22
2017-11-11T01:23:50.831Z,98315.98
2017-11-11T01:26:21.621Z,98311.22
2017-11-11T01:28:51.568Z,98303.36
2017-11-11T01:31:23.099Z,98305.70
2017-11-11T01:33:52.813Z,98310.93
2017-11-11T01:36:23.408Z,98312.28
2017-11-11T01:38:54.561Z,98309.24
2017-11-11T01:41:28.326Z,98306.05
2017-11-11T01:43:58.483Z,98295.89
2017-11-11T01:46:28.726Z,98299.33
2017-11-11T01:48:58.691Z,98300.19
2017-11-11T01:51:28.730Z,98301.19
2017-11-11T01:53:59.508Z,98308.87
2017-11-11T01:56:29.469Z,98295.08
2017-11-11T01:58:59.960Z,98299.05
2017-11-11T02:01:30.859Z,98303.66
2017-11-11T02:04:00.738Z,98295.97
2017-11-11T02:06:30.152Z,98292.97
2017-11-11T02:09:00.194Z,98289.79
2017-11-11T02:11:30.142Z,98308.25
2017-11-11T02:14:00.717Z,98311.05
2017-11-11T02:16:30.700Z,98312.95
2017-11-11T02:19:01.828Z,98314.11
2017-11-11T02:21:32.699Z,98322.44
2017-11-11T02:24:03.235Z,98320.70
2017-11-11T02:26:33.997Z,98340.79
2017-11-11T02:29:03.982Z,98346.34
2017-11-11T02:31:34.302Z,98343.47
2017-11-11T02:37:04.332Z,98336.56
2017-11-11T02:39:34.296Z,98336.98
2017-11-11T02:42:03.986Z,98338.20
2017-11-11T02:44:33.939Z,98330.52
2017-11-11T02:47:04.094Z,98327.34
2017-11-11T02:49:34.383Z,98315.53
2017-11-11T02:52:06.792Z,98326.80
2017-11-11T02:54:38.325Z,98325.31
2017-11-11T02:57:09.536Z,98333.57
2017-11-11T03:15:07.037Z,98331.77
2017-11-11T03:17:37.592Z,98339.85
2017-11-11T03:20:12.180Z,98333.16
2017-11-11T03:30:59.032Z,98341.16
2017-11-11T03:33:30.984Z,98350.67
2017-11-11T03:36:02.341Z,98349.06
2017-11-11T03:50:13.527Z,98347.89
2017-11-11T04:05:16.862Z,98365.34
2017-11-11T04:24:37.683Z,98375.82
2017-11-11T04:27:09.152Z,98374.64
2017-11-11T04:29:39.974Z,98374.79
2017-11-11T04:32:09.844Z,98363.33
2017-11-11T04:34:40.556Z,98371.81
2017-11-11T04:37:12.351Z,98376.77
2017-11-11T04:39:42.743Z,98376.40
2017-11-11T04:50:05.387Z,98383.59
2017-11-11T04:55:09.026Z,98390.44
2017-11-11T04:57:40.086Z,98395.72
2017-11-11T05:00:11.111Z,98396.13
2017-11-11T05:18:18.244Z,98401.41
2017-11-11T05:20:50.435Z,98406.33
2017-11-11T05:28:30.923Z,98411.42
2017-11-11T05:44:21.282Z,98431.05
2017-11-11T05:46:55.064Z,98423.70
2017-11-11T05:49:28.921Z,98428.77
2017-11-11T05:51:58.695Z,98433.74
2017-11-11T05:54:30.372Z,98441.49
2017-11-11T05:57:00.571Z,98451.47
2017-11-11T05:59:33.379Z,98453.55
2017-11-11T06:02:03.980Z,98444.99
2017-11-11T06:04:34.713Z,98447.27
2017-11-11T06:07:04.786Z,98450.90
2017-11-11T06:09:35.001Z,98458.22
2017-11-11T06:14:43.038Z,98465.52
2017-11-11T06:17:12.968Z,98463.58
2017-11-11T06:19:43.084Z,98467.77
2017-11-11T06:52:05.836Z,98481.12
2017-11-11T07:18:54.972Z,98501.70
2017-11-11T07:24:02.980Z,98508.48
2017-11-11T07:32:24.537Z,98504.12
2017-11-11T07:34:54.566Z,98498.87
2017-11-11T07:37:24.558Z,98501.60
2017-11-11T07:39:54.630Z,98504.97
2017-11-11T07:42:24.946Z,98507.37
2017-11-11T07:44:55.256Z,98506.63
2017-11-11T07:47:25.748Z,98500.70
2017-11-11T07:49:56.053Z,98500.37
2017-11-11T07:52:25.942Z,98503.28
2017-11-11T07:54:55.805Z,98500.58
2017-11-11T07:57:25.676Z,98497.73
2017-11-11T07:59:55.790Z,98501.02
2017-11-11T08:02:26.785Z,98493.03
2017-11-11T08:04:58.014Z,98492.67
2017-11-11T08:07:28.353Z,98488.78
2017-11-11T08:09:58.101Z,98489.47
2017-11-11T08:12:27.846Z,98491.03
2017-11-11T08:14:57.668Z,98499.08
2017-11-11T08:17:27.421Z,98493.94
2017-11-11T08:19:57.269Z,98493.14
2017-11-11T08:22:27.761Z,98486.27
2017-11-11T08:24:57.458Z,98489.38
2017-11-11T08:27:27.512Z,98484.96
2017-11-11T08:29:58.680Z,98487.74
2017-11-11T08:35:02.632Z,98474.73
2017-11-11T08:37:32.501Z,98480.67
2017-11-11T08:40:02.601Z,98473.86
2017-11-11T08:42:32.699Z,98483.95
2017-11-11T08:45:02.983Z,98470.05
2017-11-11T08:47:33.354Z,98468.48
2017-11-11T08:50:04.284Z,98471.75
2017-11-11T08:52:34.573Z,98465.43
2017-11-11T08:55:04.621Z,98472.70
2017-11-11T08:57:36.140Z,98474.95
2017-11-11T09:00:07.087Z,98459.08
2017-11-11T09:02:36.923Z,98462.59
2017-11-11T09:05:06.795Z,98454.98
2017-11-11T09:07:36.990Z,98452.11
2017-11-11T09:10:06.906Z,98452.52
2017-11-11T09:12:42.613Z,98453.27
2017-11-11T09:15:19.287Z,98439.20
2017-11-11T09:17:50.229Z,98442.17
2017-11-11T09:20:20.519Z,98447.73
2017-11-11T09:22:50.545Z,98448.73
2017-11-11T09:25:20.657Z,98452.71
2017-11-11T09:27:50.900Z,98435.64
2017-11-11T09:30:22.043Z,98444.80
2017-11-11T09:32:52.785Z,98444.18
2017-11-11T09:35:22.964Z,98431.07
2017-11-11T09:37:52.623Z,98432.83
2017-11-11T09:40:22.899Z,98432.52
2017-11-11T09:42:55.247Z,98427.88
2017-11-11T10:04:55.010Z,98391.59
2017-11-11T10:07:25.401Z,98396.76
2017-11-11T10:09:56.630Z,98398.69
2017-11-11T10:12:29.010Z,98391.20
2017-11-11T10:15:00.357Z,98396.09
2017-11-11T10:17:31.665Z,98391.09
2017-11-11T10:20:03.009Z,98387.16
2017-11-11T10:26:03.655Z,98383.34
2017-11-11T10:28:37.970Z,98373.68
2017-11-11T10:31:08.498Z,98377.13
2017-11-11T10:33:39.159Z,98370.94
2017-11-11T10:36:09.681Z,98361.38
2017-11-11T10:38:41.230Z,98363.16
2017-11-11T10:41:12.372Z,98369.88
2017-11-11T10:43:42.900Z,98358.11
2017-11-11T10:46:13.404Z,98365.77
2017-11-11T10:48:43.697Z,98363.23
2017-11-11T10:51:14.498Z,98365.12
2017-11-11T10:53:44.603Z,98371.33
2017-11-11T10:56:16.382Z,98357.73
2017-11-11T10:58:49.170Z,98344.59
2017-11-11T11:01:21.147Z,98344.82
2017-11-11T11:03:53.200Z,98355.45
2017-11-11T11:06:24.920Z,98335.83
2017-11-11T11:08:55.764Z,98343.62
2017-11-11T11:11:27.266Z,98322.70
2017-11-11T11:13:59.023Z,98324.23
2017-11-11T11:16:30.764Z,98322.19
2017-11-11T11:19:02.587Z,98323.52
2017-11-11T11:21:34.326Z,98323.84
2017-11-11T11:24:06.046Z,98319.27
2017-11-11T11:26:37.691Z,98303.79
2017-11-11T11:29:09.206Z,98301.36
2017-11-11T11:31:42.508Z,98295.32
2017-11-11T11:34:15.280Z,98283.67
2017-11-11T11:36:46.572Z,98287.06
2017-11-11T11:39:17.856Z,98275.05
2017-11-11T11:41:49.115Z,98277.13
2017-11-11T11:44:19.061Z,98272.40
2017-11-11T11:46:50.709Z,98262.63
2017-11-11T11:49:23.190Z,98262.95
2017-11-11T11:51:58.058Z,98263.42
2017-11-11T11:54:30.035Z,98261.77
2017-11-11T11:57:01.753Z,98258.23
2017-11-11T11:59:33.597Z,98241.88
2017-11-11T12:02:04.884Z,98242.38
2017-11-11T12:04:36.793Z,98244.19
2017-11-11T12:07:09.220Z,98237.77
2017-11-11T12:09:39.380Z,98242.83
2017-11-11T12:12:09.276Z,98233.03
2017-11-11T12:14:39.321Z,98224.65
2017-11-11T12:17:09.197Z,98224.27
2017-11-11T12:19:39.033Z,98227.19
2017-11-11T12:22:09.121Z,98216.25
2017-11-11T12:24:39.292Z,98217.23
2017-11-11T12:27:09.237Z,98213.94
2017-11-11T12:29:40.401Z,98205.98
2017-11-11T12:32:12.849Z,98202.97
2017-11-11T12:34:45.064Z,98200.17
2017-11-11T12:37:15.248Z,98191.69
2017-11-11T12:39:45.593Z,98185.64
2017-11-11T12:42:16.159Z,98186.34
2017-11-11T12:44:52.119Z,98183.31
2017-11-11T12:47:24.110Z,98182.33
2017-11-11T12:49:55.930Z,98181.89
2017-11-11T12:52:27.703Z,98171.03
2017-11-11T12:54:57.520Z,98159.30
2017-11-11T12:57:29.109Z,98166.28
2017-11-11T13:00:00.241Z,98164.15
2017-11-11T13:02:31.265Z,98163.89
2017-11-11T13:05:03.602Z,98159.39
2017-11-11T13:07:35.541Z,98153.09
2017-11-11T13:10:08.398Z,98150.41
2017-11-11T13:12:40.302Z,98141.95
2017-11-11T13:15:11.789Z,98137.25
2017-11-11T13:17:42.739Z,98131.51
2017-11-11T13:20:12.649Z,98130.28
2017-11-11T13:22:44.235Z,98128.86
2017-11-11T13:25:14.854Z,98113.75
2017-11-11T13:27:45.561Z,98114.51
2017-11-11T13:30:16.580Z,98120.69
2017-11-11T13:32:46.609Z,98112.20
2017-11-11T13:35:17.258Z,98109.86
2017-11-11T13:37:48.803Z,98102.69
2017-11-11T13:40:19.188Z,98105.95
2017-11-11T13:42:50.958Z,98100.19
2017-11-11T13:45:21.725Z,98090.09
2017-11-11T13:47:54.038Z,98091.70
2017-11-11T13:50:25.221Z,98096.86
2017-11-11T13:52:56.122Z,98093.10
2017-11-11T13:55:27.464Z,98086.31
2017-11-11T13:57:57.667Z,98083.57
2017-11-11T14:00:28.993Z,98070.48
2017-11-11T14:03:01.120Z,98070.63
2017-11-11T14:05:32.171Z,98063.54
2017-11-11T14:08:03.613Z,98071.84
2017-11-11T14:10:33.530Z,98060.57
2017-11-11T14:13:03.339Z,98062.05
2017-11-11T14:15:33.133Z,98049.22
2017-11-11T14:18:02.890Z,98056.59
2017-11-11T14:20:32.636Z,98049.88
2017-11-11T14:23:02.689Z,98046.58
2017-11-11T14:25:32.565Z,98045.69
2017-11-11T14:28:02.428Z,98043.18
2017-11-11T14:31:09.999Z,98037.41
2017-11-11T14:33:39.763Z,98028.08
2017-11-11T14:36:09.492Z,98034.94
2017-11-11T14:38:39.273Z,98034.17
2017-11-11T14:41:08.908Z,98033.50
2017-11-11T14:43:39.155Z,98025.00
2017-11-11T14:46:08.914Z,98016.58
2017-11-11T14:48:38.867Z,98021.05
2017-11-11T14:51:08.617Z,98019.23
2017-11-11T14:53:38.372Z,98008.44
2017-11-11T14:56:08.137Z,98004.61
2017-11-11T14:58:41.952Z,98001.27
2017-11-11T15:01:11.725Z,97996.73
2017-11-11T15:03:42.115Z,97995.06
2017-11-11T15:06:11.852Z,97991.08
2017-11-11T15:08:41.604Z,97990.75
2017-11-11T15:11:11.362Z,97987.33
2017-11-11T15:13:40.914Z,97986.10
2017-11-11T15:16:10.484Z,97984.39
2017-11-11T15:18:40.577Z,97980.42
2017-11-11T15:21:10.402Z,97971.23
2017-11-11T15:23:39.990Z,97975.36
2017-11-11T15:26:09.765Z,97972.16
2017-11-11T15:28:39.750Z,97963.70
2017-11-11T15:31:09.340Z,97957.19
2017-11-11T15:33:39.089Z,97945.05
2017-11-11T15:36:08.818Z,97940.33
2017-11-11T15:38:38.587Z,97941.44
2017-11-11T15:41:08.352Z,97936.72
2017-11-11T15:43:38.106Z,97932.12
2017-11-11T15:46:08.228Z,97931.86
2017-11-11T15:48:38.021Z,97929.77
2017-11-11T15:51:07.775Z,97923.38
2017-11-11T15:53:39.234Z,97916.99
2017-11-11T15:56:09.175Z,97916.03
2017-11-11T15:58:38.951Z,97918.26
2017-11-11T16:01:08.590Z,97914.36
2017-11-11T16:03:38.216Z,97911.42
2017-11-11T16:06:07.814Z,97910.31
2017-11-11T16:08:37.471Z,97908.23
2017-11-11T16:11:07.389Z,97909.20
2017-11-11T16:13:36.964Z,97905.63
2017-11-11T16:16:07.280Z,97902.17
2017-11-11T16:18:37.025Z,97895.67
2017-11-11T16:21:07.863Z,97892.52
2017-11-11T16:23:37.782Z,97893.00
2017-11-11T16:26:07.640Z,97894.23
2017-11-11T16:28:37.512Z,97891.97
2017-11-11T16:31:07.418Z,97886.42
2017-11-11T16:33:37.172Z,97884.64
2017-11-11T16:36:07.022Z,97878.11
2017-11-11T16:38:36.816Z,97867.61
2017-11-11T16:41:06.658Z,97872.50
2017-11-11T16:43:36.561Z,97867.91
2017-11-11T16:46:06.335Z,97873.44
2017-11-11T16:48:36.310Z,97858.95
2017-11-11T16:51:06.388Z,97862.48
2017-11-11T16:53:36.349Z,97858.63
2017-11-11T16:56:06.253Z,97857.64
2017-11-11T16:58:36.985Z,97851.48
2017-11-11T17:01:06.858Z,97851.66
2017-11-11T17:03:36.880Z,97857.94
2017-11-11T17:06:10.891Z,97849.27
2017-11-11T17:08:40.755Z,97849.22
2017-11-11T17:11:14.854Z,97856.61
2017-11-11T17:13:44.515Z,97846.92
2017-11-11T17:16:14.508Z,97843.44
2017-11-11T17:18:44.313Z,97838.30
2017-11-11T17:21:14.067Z,97840.53
2017-11-11T17:23:43.946Z,97845.16
2017-11-11T17:26:13.791Z,97842.64
2017-11-11T17:28:43.776Z,97844.98
2017-11-11T17:31:13.656Z,97843.79
2017-11-11T17:33:44.140Z,97845.91
2017-11-11T17:36:13.968Z,97838.70
2017-11-11T17:38:43.698Z,97834.59
2017-11-11T17:41:13.432Z,97838.92
2017-11-11T17:43:46.217Z,97838.70
2017-11-11T17:46:15.983Z,97836.14
2017-11-11T17:48:46.001Z,97832.03
2017-11-11T17:51:15.755Z,97831.44
2017-11-11T17:53:45.530Z,97832.89
2017-11-11T17:56:15.297Z,97825.12
2017-11-11T17:58:45.049Z,97817.10
2017-11-11T18:01:14.806Z,97819.08
2017-11-11T18:03:44.368Z,97816.73
2017-11-11T18:06:13.927Z,97813.58
2017-11-11T18:08:43.738Z,97802.44
2017-11-11T18:11:13.570Z,97804.03
2017-11-11T18:13:43.426Z,97795.88
2017-11-11T18:16:13.185Z,97793.91
2017-11-11T18:18:42.991Z,97796.33
2017-11-11T18:21:12.759Z,97783.03
2017-11-11T18:23:42.573Z,97776.42
2017-11-11T18:26:12.353Z,97769.39
2017-11-11T18:28:42.109Z,97760.94
2017-11-11T18:31:11.939Z,97768.39
2017-11-11T18:33:41.777Z,97772.58
2017-11-11T18:36:11.554Z,97754.03
2017-11-11T18:38:41.456Z,97756.89
2017-11-11T18:41:11.282Z,97758.72
2017-11-11T18:43:41.055Z,97744.86
2017-11-11T18:46:10.617Z,97737.13
2017-11-11T18:48:40.377Z,97739.50
2017-11-11T18:51:10.184Z,97734.02
2017-11-11T18:53:40.067Z,97739.19
2017-11-11T18:56:10.089Z,97729.73
2017-11-11T18:58:39.950Z,97726.91
2017-11-11T19:01:09.762Z,97718.30
2017-11-11T19:03:39.370Z,97721.80
2017-11-11T19:06:09.139Z,97720.17
2017-11-11T19:08:38.965Z,97714.19
2017-11-11T19:11:08.819Z,97715.55
2017-11-11T19:13:38.546Z,97712.06
2017-11-11T19:16:08.925Z,97700.88
2017-11-11T19:18:38.886Z,97705.59
2017-11-11T19:21:08.832Z,97697.10
2017-11-11T19:23:42.440Z,97697.89
2017-11-11T19:26:12.261Z,97689.95
2017-11-11T19:28:42.028Z,97694.72
2017-11-11T19:31:11.824Z,97692.45
2017-11-11T19:33:41.582Z,97681.14
2017-11-11T19:36:11.465Z,97688.96
2017-11-11T19:38:41.495Z,97689.05
2017-11-11T19:41:11.262Z,97675.13
2017-11-11T19:43:41.270Z,97675.50
2017-11-11T19:46:11.073Z,97670.55
2017-11-11T19:48:40.822Z,97666.19
2017-11-11T19:51:10.704Z,97673.12
2017-11-11T19:53:40.722Z,97662.41
2017-11-11T19:56:10.607Z,97656.36
2017-11-11T19:58:40.340Z,97664.33
2017-11-11T20:01:10.143Z,97659.91
2017-11-11T20:03:40.771Z,97659.73
2017-11-11T20:06:10.602Z,97645.42
2017-11-11T20:08:40.889Z,97642.83
2017-11-11T20:11:10.718Z,97650.23
2017-11-11T20:13:40.545Z,97640.37
2017-11-11T20:16:10.296Z,97636.77
2017-11-11T20:18:40.057Z,97637.63
2017-11-11T20:21:09.878Z,97643.66
2017-11-11T20:23:39.642Z,97631.31
2017-11-11T20:26:09.402Z,97628.26
2017-11-11T20:28:38.979Z,97637.51
2017-11-11T20:31:08.981Z,97636.48
2017-11-11T20:33:38.559Z,97625.03
2017-11-11T20:36:08.339Z,97627.22
2017-11-11T20:38:37.964Z,97614.05
2017-11-11T20:41:07.737Z,97623.79
2017-11-11T20:43:37.546Z,97633.00
2017-11-11T20:46:07.316Z,97631.46
2017-11-11T20:48:37.135Z,97610.25
2017-11-11T20:51:10.990Z,97618.34
2017-11-11T20:53:40.773Z,97609.02
2017-11-11T20:56:10.343Z,97614.66
2017-11-11T20:58:40.145Z,97602.23
2017-11-11T21:01:10.031Z,97608.67
2017-11-11T21:03:39.830Z,97613.44
2017-11-11T21:06:09.855Z,97604.53
2017-11-11T21:08:39.615Z,97597.84
2017-11-11T21:11:09.574Z,97595.31
2017-11-11T21:13:39.341Z,97599.62
2017-11-11T21:16:20.112Z,97603.53
2017-11-11T21:18:52.260Z,97592.55
2017-11-11T21:21:21.457Z,97584.06
2017-11-11T21:23:50.928Z,97584.09
2017-11-11T21:26:20.703Z,97589.44
2017-11-11T21:28:58.288Z,97583.49
2017-11-11T21:31:30.340Z,97596.04
2017-11-11T21:33:59.932Z,97599.22
2017-11-11T21:36:29.747Z,97582.87
2017-11-11T21:38:59.555Z,97583.70
2017-11-11T21:41:29.333Z,97580.74
2017-11-11T21:44:00.279Z,97587.75
2017-11-11T21:46:30.361Z,97577.99
2017-11-11T21:49:09.065Z,97580.45
2017-11-11T21:51:41.404Z,97583.75
2017-11-11T21:54:10.986Z,97575.74
2017-11-11T21:56:40.751Z,97580.02
2017-11-11T21:59:10.591Z,97581.38
2017-11-11T22:01:40.375Z,97581.55
2017-11-11T22:04:10.199Z,97580.88
2017-11-11T22:06:39.965Z,97581.86
2017-11-11T22:09:09.922Z,97578.05
2017-11-11T22:11:39.681Z,97574.86
2017-11-11T22:14:09.483Z,97575.09
2017-11-11T22:16:39.258Z,97570.19
2017-11-11T22:19:09.165Z,97571.55
2017-11-11T22:21:38.944Z,97568.07
2017-11-11T22:24:08.695Z,97568.14
2017-11-11T22:26:38.449Z,97578.28
2017-11-11T22:29:08.295Z,97578.19
2017-11-11T22:31:38.159Z,97573.20
2017-11-11T22:34:08.056Z,97564.92
2017-11-11T22:36:38.004Z,97567.26
2017-11-11T22:39:07.746Z,97571.99
2017-11-11T22:41:37.491Z,97558.87
2017-11-11T22:44:08.769Z,97568.95
2017-11-11T22:46:38.538Z,97567.61
2017-11-11T22:49:08.369Z,97565.70
2017-11-11T22:51:38.441Z,97563.06
2017-11-11T22:54:08.345Z,97564.70
2017-11-11T22:56:38.454Z,97564.70
2017-11-11T22:59:08.293Z,97565.73
2017-11-11T23:01:38.161Z,97564.52
2017-11-11T23:04:08.178Z,97564.27
2017-11-11T23:06:39.529Z,97561.47
2017-11-11T23:09:09.683Z,97566.92
2017-11-11T23:11:39.541Z,97558.59
2017-11-11T23:14:09.358Z,97557.91
2017-11-11T23:16:39.116Z,97556.64
2017-11-11T23:19:09.588Z,97549.45
2017-11-11T23:21:39.753Z,97553.79
2017-11-11T23:24:10.391Z,97561.69
2017-11-11T23:26:40.765Z,97552.85
2017-11-11T23:29:11.934Z,97552.17
2017-11-11T23:31:42.430Z,97549.08
2017-11-11T23:34:12.675Z,97546.39
2017-11-11T23:36:42.594Z,97553.79
2017-11-11T23:39:15.626Z,97553.09
2017-11-11T23:41:47.988Z,97549.89
2017-11-11T23:44:18.025Z,97553.63
2017-11-11T23:46:49.341Z,97551.39
2017-11-11T23:49:19.633Z,97553.11
2017-11-11T23:51:50.265Z,97562.66
2017-11-11T23:54:20.782Z,97558.23
2017-11-11T23:56:51.210Z,97558.11
2017-11-11T23:59:24.794Z,97557.45
